Time;durP1;ratioP1;P1;durP2;ratioP2;P2;SDS_P1;SDS_P2;PMS_P1;PMS_P2;Temp;Humidity;BMP_temperature;BMP_pressure;BME280_temperature;BME280_humidity;BME280_pressure;Samples;Min_cycle;Max_cycle;Signal;HPM_P1;HPM_P2
2022/12/29 00:00:00;;;;;;;1.65;1.30;;;5.40;99.90;;;;;;5018342;28;20028;-78
2022/12/29 00:02:26;;;;;;;1.40;1.05;;;5.40;99.90;;;;;;5049936;28;20028;-77
2022/12/29 00:04:52;;;;;;;2.63;1.20;;;5.40;99.90;;;;;;5061081;28;20028;-77
2022/12/29 00:07:18;;;;;;;2.00;1.33;;;5.40;99.90;;;;;;5064643;28;20089;-77
2022/12/29 00:09:44;;;;;;;1.63;1.15;;;5.40;99.90;;;;;;5049427;28;20020;-77
2022/12/29 00:12:10;;;;;;;1.15;1.05;;;5.40;99.90;;;;;;5057957;28;20038;-77
2022/12/29 00:17:20;;;;;;;1.65;0.98;;;5.40;99.90;;;;;;5068408;28;20064;-78
2022/12/29 00:36:27;;;;;;;2.70;1.38;;;5.50;99.90;;;;;;5060106;28;20021;-78
2022/12/29 00:44:51;;;;;;;1.65;1.27;;;5.50;99.90;;;;;;5062461;28;20053;-78
2022/12/29 00:47:17;;;;;;;1.60;1.00;;;5.50;99.90;;;;;;5034456;28;20035;-78
2022/12/29 00:49:43;;;;;;;1.60;1.10;;;5.50;99.90;;;;;;5064258;28;20107;-78
2022/12/29 00:52:13;;;;;;;3.58;1.25;;;5.60;99.90;;;;;;5055040;28;20036;-80
2022/12/29 00:54:40;;;;;;;1.35;1.08;;;5.60;99.90;;;;;;5056476;28;20029;-79
2022/12/29 00:57:08;;;;;;;2.65;1.05;;;5.60;99.90;;;;;;5070451;28;20035;-78
2022/12/29 00:59:35;;;;;;;1.15;1.05;;;5.60;99.90;;;;;;5052247;28;20094;-80
2022/12/29 01:02:01;;;;;;;1.83;0.90;;;5.50;99.90;;;;;;5047845;28;20186;-79
2022/12/29 01:04:28;;;;;;;1.67;1.13;;;5.60;99.90;;;;;;5062869;28;20189;-78
2022/12/29 01:06:54;;;;;;;1.05;0.95;;;5.60;99.90;;;;;;5049668;28;20063;-79
2022/12/29 01:12:06;;;;;;;2.63;1.00;;;5.60;99.90;;;;;;5052648;28;20082;-78
2022/12/29 01:14:33;;;;;;;3.13;1.10;;;5.60;99.90;;;;;;5051758;28;20029;-79
2022/12/29 01:17:00;;;;;;;2.00;1.25;;;5.60;99.90;;;;;;5056149;28;20056;-79
2022/12/29 01:19:26;;;;;;;1.35;1.20;;;5.60;99.90;;;;;;5075408;28;20021;-78
2022/12/29 01:21:52;;;;;;;2.00;1.00;;;5.70;99.90;;;;;;5074713;28;20357;-78
2022/12/29 01:24:20;;;;;;;1.98;1.10;;;5.70;99.90;;;;;;5062678;28;20117;-79
2022/12/29 01:26:49;;;;;;;1.88;1.20;;;5.80;99.90;;;;;;5057520;28;20404;-78
2022/12/29 01:29:17;;;;;;;1.60;1.30;;;5.80;99.90;;;;;;5065286;28;20671;-78
2022/12/29 01:31:44;;;;;;;2.22;1.17;;;5.80;99.90;;;;;;5079960;28;20021;-78
2022/12/29 01:34:10;;;;;;;1.48;1.00;;;5.80;99.90;;;;;;5076882;28;20032;-78
2022/12/29 01:36:37;;;;;;;2.25;1.20;;;5.80;99.90;;;;;;5040222;28;20094;-80
2022/12/29 01:39:03;;;;;;;2.33;1.40;;;5.90;99.90;;;;;;5022504;28;20063;-79
2022/12/29 01:41:30;;;;;;;4.53;1.75;;;5.90;99.90;;;;;;5039173;28;20036;-79
2022/12/29 01:44:00;;;;;;;2.28;1.05;;;5.90;99.90;;;;;;5071561;28;20131;-79
2022/12/29 01:46:29;;;;;;;1.30;0.90;;;6.10;99.90;;;;;;5056459;28;20039;-78
2022/12/29 01:49:09;;;;;;;1.73;1.10;;;6.10;99.90;;;;;;5054279;28;20421;-78
2022/12/29 01:51:40;;;;;;;2.03;1.17;;;6.10;99.90;;;;;;5067684;28;20016;-79
2022/12/29 01:54:13;;;;;;;1.88;1.20;;;6.10;99.90;;;;;;5039478;28;20048;-78
2022/12/29 01:56:39;;;;;;;2.05;0.90;;;6.20;99.90;;;;;;5055091;28;20033;-77
2022/12/29 01:59:12;;;;;;;1.80;1.00;;;6.20;99.90;;;;;;5035587;28;20428;-78
2022/12/29 02:01:38;;;;;;;2.58;0.88;;;6.20;99.90;;;;;;5055917;28;20054;-79
2022/12/29 02:04:04;;;;;;;1.73;1.15;;;6.20;99.90;;;;;;5055117;28;20094;-78
2022/12/29 02:06:41;;;;;;;2.78;0.90;;;6.20;99.90;;;;;;5056968;28;20028;-78
2022/12/29 02:09:07;;;;;;;2.42;1.30;;;6.30;99.90;;;;;;5074891;28;20028;-77
2022/12/29 02:11:36;;;;;;;3.13;1.13;;;6.30;99.90;;;;;;5031658;28;20557;-78
2022/12/29 02:14:12;;;;;;;1.60;1.00;;;6.30;99.90;;;;;;5073252;28;20135;-78
2022/12/29 02:17:01;;;;;;;1.60;1.05;;;6.40;99.90;;;;;;5040370;28;20106;-78
2022/12/29 02:20:00;;;;;;;1.42;1.20;;;6.40;99.90;;;;;;5044636;28;20041;-78
2022/12/29 02:22:25;;;;;;;1.25;1.00;;;6.50;99.90;;;;;;5025141;28;20424;-77
2022/12/29 02:25:06;;;;;;;3.05;1.08;;;6.60;99.90;;;;;;5063623;28;20032;-77
2022/12/29 02:27:54;;;;;;;1.35;0.88;;;6.60;99.90;;;;;;5067597;28;20090;-78
2022/12/29 02:31:20;;;;;;;3.65;1.25;;;6.70;99.90;;;;;;5054805;28;20071;-78
2022/12/29 02:33:59;;;;;;;2.42;1.02;;;6.90;99.90;;;;;;5002919;28;20104;-78
2022/12/29 02:36:25;;;;;;;1.67;1.10;;;6.90;99.90;;;;;;5007607;28;20720;-80
2022/12/29 02:39:14;;;;;;;2.00;0.90;;;7.00;99.90;;;;;;5057927;28;20489;-78
2022/12/29 02:42:07;;;;;;;1.45;0.80;;;7.00;99.90;;;;;;5074944;28;20059;-77
2022/12/29 02:44:45;;;;;;;1.17;0.90;;;7.10;99.90;;;;;;5037390;28;20033;-78
2022/12/29 02:47:29;;;;;;;2.25;1.30;;;7.10;99.90;;;;;;5057128;28;20081;-79
2022/12/29 02:50:20;;;;;;;2.22;1.08;;;7.10;99.90;;;;;;5055582;28;20059;-80
2022/12/29 02:53:01;;;;;;;1.58;0.90;;;7.10;99.90;;;;;;5067622;28;20020;-80
2022/12/29 02:55:27;;;;;;;1.30;1.08;;;7.20;99.90;;;;;;5075893;28;20035;-79
2022/12/29 02:58:15;;;;;;;1.58;0.98;;;7.20;99.90;;;;;;5061981;28;20058;-78
2022/12/29 03:01:07;;;;;;;1.20;0.98;;;7.30;99.90;;;;;;5057539;28;20084;-77
2022/12/29 03:03:32;;;;;;;1.35;1.10;;;7.40;99.90;;;;;;5075893;28;20024;-77
2022/12/29 03:06:36;;;;;;;2.83;1.00;;;7.40;99.90;;;;;;5075384;28;20088;-78
2022/12/29 03:09:20;;;;;;;1.20;0.93;;;7.50;99.90;;;;;;5070753;28;20052;-80
2022/12/29 03:12:17;;;;;;;2.03;0.90;;;7.50;99.90;;;;;;5054497;28;20024;-78
2022/12/29 03:18:11;;;;;;;2.88;1.20;;;7.60;99.90;;;;;;5073002;28;20029;-79
2022/12/29 03:20:43;;;;;;;4.20;1.02;;;7.60;99.90;;;;;;5038156;28;20021;-78
2022/12/29 03:23:13;;;;;;;2.75;1.00;;;7.60;99.90;;;;;;5056794;28;20028;-77
2022/12/29 03:25:44;;;;;;;2.15;1.00;;;7.60;99.90;;;;;;5071368;28;20032;-77
2022/12/29 03:28:16;;;;;;;1.88;0.95;;;7.60;99.90;;;;;;5039957;28;20029;-79
2022/12/29 03:30:46;;;;;;;1.85;1.00;;;7.60;99.90;;;;;;5077703;28;20481;-78
2022/12/29 03:33:26;;;;;;;2.45;1.30;;;7.60;99.90;;;;;;5049591;28;20021;-79
2022/12/29 03:35:58;;;;;;;2.15;1.10;;;7.60;99.90;;;;;;5054908;28;20032;-80
2022/12/29 03:38:48;;;;;;;1.98;1.00;;;7.60;99.90;;;;;;5036657;28;20129;-79
2022/12/29 03:41:20;;;;;;;1.25;1.00;;;7.70;99.90;;;;;;5062735;28;20373;-79
2022/12/29 03:43:46;;;;;;;3.67;1.00;;;7.70;99.90;;;;;;5054374;28;20032;-79
2022/12/29 03:46:11;;;;;;;0.93;0.82;;;7.70;99.90;;;;;;5072742;28;20136;-81
2022/12/29 03:48:40;;;;;;;1.35;1.10;;;7.80;99.90;;;;;;5041721;28;20025;-78
2022/12/29 03:51:07;;;;;;;2.95;1.15;;;7.80;99.90;;;;;;5067237;28;20056;-79
2022/12/29 03:53:33;;;;;;;1.83;0.98;;;7.90;99.90;;;;;;5039879;28;20036;-78
2022/12/29 03:55:59;;;;;;;2.17;1.25;;;7.80;99.90;;;;;;5055236;28;20392;-78
2022/12/29 03:58:25;;;;;;;2.35;0.80;;;7.90;99.90;;;;;;5067185;28;20028;-78
2022/12/29 04:01:04;;;;;;;1.45;1.00;;;7.90;99.90;;;;;;5070167;28;20349;-78
2022/12/29 04:03:33;;;;;;;1.30;0.82;;;7.90;99.90;;;;;;5057238;28;20098;-77
2022/12/29 04:05:59;;;;;;;1.92;1.08;;;8.00;99.90;;;;;;5041308;28;20663;-79
2022/12/29 04:08:25;;;;;;;1.88;0.68;;;8.00;99.90;;;;;;5049938;28;20051;-78
2022/12/29 04:10:51;;;;;;;1.23;0.80;;;8.00;99.90;;;;;;5061325;28;20036;-78
2022/12/29 04:13:19;;;;;;;2.05;0.77;;;8.00;99.90;;;;;;5038600;28;20032;-78
2022/12/29 04:15:46;;;;;;;1.42;0.93;;;8.00;99.90;;;;;;5059262;28;20028;-78
2022/12/29 04:18:13;;;;;;;2.92;1.25;;;8.00;99.90;;;;;;5045672;28;20040;-79
2022/12/29 04:23:23;;;;;;;2.28;1.10;;;7.90;99.90;;;;;;5047813;28;20059;-79
2022/12/29 04:25:50;;;;;;;3.45;0.80;;;7.80;99.90;;;;;;5065332;28;20028;-78
2022/12/29 04:28:16;;;;;;;1.90;0.95;;;7.70;99.90;;;;;;5059099;28;20025;-77
2022/12/29 04:31:03;;;;;;;2.42;1.10;;;7.70;99.90;;;;;;5053391;28;20565;-81
2022/12/29 04:33:35;;;;;;;2.70;1.00;;;7.70;99.90;;;;;;5064057;28;20033;-79
2022/12/29 04:36:01;;;;;;;1.52;0.90;;;7.60;99.90;;;;;;5048894;28;20036;-79
2022/12/29 04:38:28;;;;;;;3.55;1.00;;;7.60;99.90;;;;;;5051645;28;20028;-78
2022/12/29 04:40:55;;;;;;;2.33;1.10;;;7.60;99.90;;;;;;5040714;28;20119;-78
2022/12/29 04:43:23;;;;;;;1.10;1.00;;;7.60;99.90;;;;;;5067043;28;20029;-78
2022/12/29 04:46:07;;;;;;;1.83;0.95;;;7.60;99.90;;;;;;5057360;28;20043;-78
2022/12/29 04:48:45;;;;;;;1.95;0.98;;;7.60;99.90;;;;;;5053467;28;20024;-79
2022/12/29 04:51:49;;;;;;;2.88;1.20;;;7.60;99.90;;;;;;5068447;28;20037;-79
2022/12/29 04:54:16;;;;;;;2.30;0.93;;;7.70;99.90;;;;;;5057953;28;20715;-78
2022/12/29 04:56:47;;;;;;;2.38;1.00;;;7.70;99.90;;;;;;5058215;28;20549;-78
2022/12/29 04:59:15;;;;;;;2.13;1.00;;;7.70;99.90;;;;;;5044763;28;20048;-79
2022/12/29 05:01:43;;;;;;;2.05;1.00;;;7.60;99.90;;;;;;5038849;28;20035;-78
2022/12/29 05:04:09;;;;;;;2.70;1.20;;;7.60;99.90;;;;;;5063615;28;20036;-77
2022/12/29 05:06:37;;;;;;;1.27;0.98;;;7.60;99.90;;;;;;5057660;28;20119;-78
2022/12/29 05:09:03;;;;;;;1.02;0.82;;;7.70;99.90;;;;;;5066541;28;20032;-79
2022/12/29 05:11:29;;;;;;;1.15;1.05;;;7.70;99.90;;;;;;5057126;28;20489;-79
2022/12/29 05:13:57;;;;;;;1.83;1.00;;;7.60;99.90;;;;;;5057190;28;20056;-79
2022/12/29 05:16:23;;;;;;;1.25;0.90;;;7.50;99.90;;;;;;5027270;28;20048;-78
2022/12/29 05:18:49;;;;;;;3.30;1.20;;;7.50;99.90;;;;;;5051274;28;20029;-80
2022/12/29 05:21:15;;;;;;;1.50;0.80;;;7.50;99.90;;;;;;5053155;28;20067;-77
2022/12/29 05:23:43;;;;;;;2.92;1.08;;;7.40;99.90;;;;;;5033657;28;20045;-78
2022/12/29 05:26:09;;;;;;;3.60;1.10;;;7.40;99.90;;;;;;5048140;28;20035;-78
2022/12/29 05:29:11;;;;;;;1.45;1.10;;;7.40;99.90;;;;;;5036011;28;20040;-79
2022/12/29 05:31:37;;;;;;;2.08;0.88;;;7.50;99.90;;;;;;5067800;28;20040;-78
2022/12/29 05:34:04;;;;;;;1.60;1.23;;;7.60;99.90;;;;;;5058815;28;20090;-77
2022/12/29 05:36:30;;;;;;;1.40;1.17;;;7.60;99.90;;;;;;5062782;28;20036;-78
2022/12/29 05:38:59;;;;;;;1.67;0.95;;;7.60;99.90;;;;;;5055812;28;20032;-77
2022/12/29 05:41:28;;;;;;;2.05;1.17;;;7.50;99.90;;;;;;5038228;28;20572;-78
2022/12/29 05:44:03;;;;;;;3.35;1.40;;;7.60;99.90;;;;;;5051748;28;20060;-79
2022/12/29 05:46:44;;;;;;;2.25;1.00;;;7.50;99.90;;;;;;5054734;28;20195;-78
2022/12/29 05:49:16;;;;;;;2.45;1.20;;;7.50;99.90;;;;;;5056381;28;20029;-78
2022/12/29 05:52:03;;;;;;;2.40;1.60;;;7.40;99.90;;;;;;5050543;28;20475;-78
2022/12/29 05:54:30;;;;;;;2.72;1.38;;;7.40;99.90;;;;;;5036220;28;20036;-80
2022/12/29 05:56:56;;;;;;;5.03;1.65;;;7.30;99.90;;;;;;5053353;28;20039;-80
2022/12/29 05:59:22;;;;;;;5.28;1.67;;;7.30;99.90;;;;;;5068140;28;20024;-79
2022/12/29 06:01:49;;;;;;;2.08;1.42;;;7.30;99.90;;;;;;5066333;28;20058;-77
2022/12/29 06:04:15;;;;;;;2.33;1.42;;;7.20;99.90;;;;;;5039638;28;20116;-78
2022/12/29 06:06:41;;;;;;;2.90;1.00;;;7.20;99.90;;;;;;5068116;28;20036;-78
2022/12/29 06:09:13;;;;;;;2.03;1.20;;;7.10;99.90;;;;;;5056112;28;20088;-78
2022/12/29 06:11:40;;;;;;;3.47;1.48;;;7.00;99.90;;;;;;5043098;28;20033;-77
2022/12/29 06:14:06;;;;;;;1.50;0.98;;;6.90;99.90;;;;;;5062868;28;20039;-78
2022/12/29 06:16:32;;;;;;;2.92;1.13;;;6.70;99.90;;;;;;5045511;28;20030;-77
2022/12/29 06:19:00;;;;;;;1.83;1.10;;;6.70;99.90;;;;;;5058399;28;20158;-79
2022/12/29 06:21:26;;;;;;;1.60;1.00;;;6.70;99.90;;;;;;5069007;28;20086;-78
2022/12/29 06:23:52;;;;;;;2.47;0.90;;;6.70;99.90;;;;;;5068233;28;20033;-76
2022/12/29 06:26:20;;;;;;;1.85;0.88;;;6.70;99.90;;;;;;5039889;28;20040;-78
2022/12/29 06:28:47;;;;;;;2.20;1.20;;;6.70;99.90;;;;;;5031552;28;20109;-80
2022/12/29 06:31:13;;;;;;;1.50;0.93;;;6.50;99.90;;;;;;5039682;28;20418;-77
2022/12/29 06:33:39;;;;;;;1.35;1.00;;;6.60;99.90;;;;;;5039330;28;20034;-78
2022/12/29 06:36:05;;;;;;;1.33;1.00;;;6.60;99.90;;;;;;5054141;28;20032;-77
2022/12/29 06:38:31;;;;;;;1.80;1.20;;;6.50;99.90;;;;;;5059668;28;20029;-78
2022/12/29 06:40:58;;;;;;;2.92;1.15;;;6.60;99.90;;;;;;5019616;28;20032;-78
2022/12/29 06:43:42;;;;;;;2.28;1.55;;;6.60;99.90;;;;;;5068312;28;20044;-78
2022/12/29 06:46:18;;;;;;;1.85;1.08;;;6.60;99.90;;;;;;5039952;28;20024;-77
2022/12/29 06:48:44;;;;;;;3.95;1.00;;;6.60;99.90;;;;;;5077729;28;20450;-78
2022/12/29 06:51:10;;;;;;;1.50;0.90;;;6.60;99.90;;;;;;5058054;28;20036;-79
2022/12/29 06:53:36;;;;;;;2.25;1.52;;;6.60;99.90;;;;;;5067839;28;20028;-78
2022/12/29 06:56:02;;;;;;;2.58;1.05;;;6.50;99.90;;;;;;5070977;28;20180;-78
2022/12/29 06:58:28;;;;;;;1.88;1.17;;;6.50;99.90;;;;;;5039975;28;20080;-78
2022/12/29 07:00:54;;;;;;;3.80;1.92;;;6.50;99.90;;;;;;5059677;28;20029;-77
2022/12/29 07:03:20;;;;;;;2.55;1.60;;;6.60;99.90;;;;;;5066328;28;20082;-78
2022/12/29 07:05:46;;;;;;;1.50;1.20;;;6.60;99.90;;;;;;5052816;28;20112;-78
2022/12/29 07:08:11;;;;;;;2.15;1.35;;;6.60;99.90;;;;;;5057502;28;20024;-79
2022/12/29 07:10:37;;;;;;;3.75;1.15;;;6.70;99.90;;;;;;5059402;28;20335;-79
2022/12/29 07:13:03;;;;;;;3.42;1.15;;;6.70;99.90;;;;;;5071206;28;20039;-78
2022/12/29 07:15:29;;;;;;;1.42;1.25;;;6.70;99.90;;;;;;5053881;28;20044;-79
2022/12/29 07:17:55;;;;;;;2.75;1.27;;;6.80;99.90;;;;;;5073095;28;20043;-77
2022/12/29 07:20:22;;;;;;;1.60;1.10;;;6.70;99.90;;;;;;5054806;28;20021;-79
2022/12/29 07:22:47;;;;;;;1.70;1.35;;;6.70;99.90;;;;;;5070927;28;20471;-78
2022/12/29 07:25:13;;;;;;;2.35;1.40;;;6.70;99.90;;;;;;5053640;28;20033;-78
2022/12/29 07:27:58;;;;;;;1.33;1.08;;;6.70;99.90;;;;;;5053639;28;20039;-78
2022/12/29 07:30:24;;;;;;;1.10;1.00;;;6.70;99.90;;;;;;5067272;28;20024;-78
2022/12/29 07:32:50;;;;;;;1.27;0.85;;;6.70;99.90;;;;;;5053732;28;20104;-78
2022/12/29 07:35:15;;;;;;;2.45;1.05;;;6.70;99.90;;;;;;5065183;28;20067;-77
2022/12/29 07:37:41;;;;;;;1.83;1.27;;;6.80;99.90;;;;;;5048421;28;20098;-77
2022/12/29 07:40:08;;;;;;;1.40;1.30;;;6.80;99.90;;;;;;5035326;28;20048;-77
2022/12/29 07:42:34;;;;;;;1.90;1.33;;;6.80;99.90;;;;;;5072184;28;20063;-77
2022/12/29 07:45:01;;;;;;;2.08;1.30;;;6.90;99.90;;;;;;5070030;28;20040;-78
2022/12/29 07:47:36;;;;;;;3.38;0.90;;;6.90;99.90;;;;;;5072155;28;20737;-77
2022/12/29 07:50:08;;;;;;;1.15;0.80;;;7.00;99.90;;;;;;5035006;28;20024;-76
2022/12/29 07:52:33;;;;;;;1.92;1.00;;;7.10;99.90;;;;;;5022144;28;20040;-77
2022/12/29 07:54:59;;;;;;;0.80;0.77;;;7.00;99.90;;;;;;5055514;28;20027;-77
2022/12/29 07:57:25;;;;;;;2.35;0.88;;;7.10;99.90;;;;;;5039812;28;20294;-79
2022/12/29 07:59:51;;;;;;;2.35;1.00;;;7.20;99.90;;;;;;5045990;28;20033;-78
2022/12/29 08:02:17;;;;;;;2.22;0.93;;;7.20;99.90;;;;;;5066739;28;20033;-78
2022/12/29 08:04:43;;;;;;;3.53;1.05;;;7.20;99.90;;;;;;5033668;28;20638;-78
2022/12/29 08:07:09;;;;;;;1.27;0.90;;;7.30;99.90;;;;;;5061186;28;20027;-80
2022/12/29 08:09:35;;;;;;;2.65;1.00;;;7.30;99.90;;;;;;5046410;28;20021;-77
2022/12/29 08:12:01;;;;;;;0.93;0.80;;;7.40;99.90;;;;;;5070035;28;20107;-79
2022/12/29 08:14:27;;;;;;;1.30;1.08;;;7.50;99.90;;;;;;5053408;28;20692;-77
2022/12/29 08:16:53;;;;;;;4.32;1.25;;;7.40;99.90;;;;;;5070363;28;20039;-76
2022/12/29 08:19:19;;;;;;;1.33;0.95;;;7.40;99.90;;;;;;5040167;28;20110;-78
2022/12/29 08:21:45;;;;;;;1.27;1.13;;;7.50;99.90;;;;;;5065810;28;20167;-78
2022/12/29 08:24:10;;;;;;;2.53;1.20;;;7.40;99.90;;;;;;5051705;28;20034;-78
2022/12/29 08:26:36;;;;;;;1.50;0.88;;;7.40;99.90;;;;;;5070067;28;20605;-78
2022/12/29 08:29:02;;;;;;;2.33;0.80;;;7.50;99.90;;;;;;5068133;28;20473;-80
2022/12/29 08:31:27;;;;;;;1.45;1.02;;;7.60;99.90;;;;;;5047165;28;20113;-78
2022/12/29 08:33:53;;;;;;;3.15;1.33;;;7.70;99.90;;;;;;5042047;28;20025;-77
2022/12/29 08:36:19;;;;;;;1.92;1.35;;;7.70;99.90;;;;;;5042677;28;20728;-78
2022/12/29 08:38:45;;;;;;;1.63;0.90;;;7.70;99.90;;;;;;5026284;28;20040;-79
2022/12/29 08:41:10;;;;;;;1.55;0.98;;;7.80;99.90;;;;;;5040712;28;20032;-78
2022/12/29 08:43:36;;;;;;;2.85;1.13;;;7.90;99.90;;;;;;5057583;28;20033;-78
2022/12/29 08:46:02;;;;;;;1.48;1.17;;;8.00;99.90;;;;;;5061349;28;20050;-78
2022/12/29 08:48:30;;;;;;;2.40;1.10;;;8.10;99.90;;;;;;5045415;28;20689;-78
2022/12/29 08:50:56;;;;;;;5.47;1.23;;;8.10;99.90;;;;;;5044047;28;20058;-78
2022/12/29 08:53:21;;;;;;;3.67;1.67;;;8.20;99.90;;;;;;5067267;28;20037;-77
2022/12/29 08:55:59;;;;;;;1.67;1.17;;;8.30;99.90;;;;;;5035063;28;20056;-78
2022/12/29 08:58:26;;;;;;;1.75;0.98;;;8.40;99.90;;;;;;5053690;28;20143;-79
2022/12/29 09:00:56;;;;;;;1.30;1.08;;;8.40;99.90;;;;;;5055459;28;20035;-78
2022/12/29 09:03:23;;;;;;;3.25;1.10;;;8.50;99.90;;;;;;5037326;28;20037;-78
2022/12/29 09:05:50;;;;;;;1.65;1.20;;;8.60;99.90;;;;;;5058570;28;20401;-77
2022/12/29 09:08:16;;;;;;;2.58;1.20;;;8.60;99.90;;;;;;5071001;28;20550;-80
2022/12/29 09:10:43;;;;;;;1.77;1.00;;;8.60;99.90;;;;;;5050529;28;20032;-78
2022/12/29 09:13:10;;;;;;;1.80;1.23;;;8.60;99.90;;;;;;5074494;28;20027;-76
2022/12/29 09:15:37;;;;;;;2.28;1.65;;;8.60;99.90;;;;;;5068597;28;20441;-77
2022/12/29 09:18:03;;;;;;;4.68;1.10;;;8.60;99.90;;;;;;5069361;28;20021;-76
2022/12/29 09:20:29;;;;;;;1.83;1.30;;;8.60;99.90;;;;;;5064145;28;20039;-79
2022/12/29 09:22:55;;;;;;;2.20;1.40;;;8.60;99.90;;;;;;5051031;28;20028;-78
2022/12/29 09:25:24;;;;;;;2.17;1.08;;;8.70;99.90;;;;;;5062414;28;20056;-77
2022/12/29 09:27:53;;;;;;;1.42;1.33;;;8.70;99.90;;;;;;5073552;28;20158;-77
2022/12/29 09:30:20;;;;;;;3.20;0.90;;;8.70;99.90;;;;;;5072337;28;20646;-77
2022/12/29 09:32:47;;;;;;;0.95;0.82;;;8.80;99.90;;;;;;5076467;28;20039;-76
2022/12/29 09:35:14;;;;;;;1.85;1.02;;;8.80;99.90;;;;;;5074774;28;20028;-77
2022/12/29 09:37:41;;;;;;;2.83;1.17;;;8.80;99.90;;;;;;5072714;28;20044;-77
2022/12/29 09:40:14;;;;;;;2.08;1.00;;;8.80;99.90;;;;;;5061368;28;20086;-77
2022/12/29 09:42:53;;;;;;;1.17;0.77;;;8.90;99.90;;;;;;5069938;28;20036;-79
2022/12/29 09:45:33;;;;;;;2.83;1.13;;;8.90;99.90;;;;;;5075594;28;20024;-78
2022/12/29 09:47:59;;;;;;;2.08;0.98;;;8.90;99.90;;;;;;5061913;28;20029;-78
2022/12/29 09:50:30;;;;;;;1.30;0.80;;;9.00;99.90;;;;;;5079695;28;20105;-78
2022/12/29 09:53:28;;;;;;;1.48;0.98;;;9.00;99.90;;;;;;5059918;28;20032;-77
2022/12/29 09:55:57;;;;;;;1.50;1.00;;;9.00;99.90;;;;;;5044189;28;20040;-76
2022/12/29 09:58:35;;;;;;;1.95;0.95;;;9.00;99.90;;;;;;5080807;28;20122;-77
2022/12/29 10:01:30;;;;;;;3.17;1.10;;;9.10;99.90;;;;;;5058391;28;20024;-79
2022/12/29 10:03:58;;;;;;;1.15;0.77;;;9.20;99.90;;;;;;5052493;28;20045;-78
2022/12/29 10:06:49;;;;;;;1.20;1.00;;;9.20;99.90;;;;;;5078960;28;20112;-78
2022/12/29 10:09:29;;;;;;;0.85;0.80;;;9.30;99.90;;;;;;5060017;28;20123;-77
2022/12/29 10:12:13;;;;;;;2.15;1.30;;;9.30;99.90;;;;;;5072561;28;20115;-77
2022/12/29 10:15:02;;;;;;;3.80;1.10;;;9.40;99.90;;;;;;5069388;28;20021;-77
2022/12/29 10:17:49;;;;;;;3.60;1.27;;;9.40;99.90;;;;;;5061735;28;20024;-76
2022/12/29 10:20:27;;;;;;;1.70;0.82;;;9.40;99.90;;;;;;5067470;28;20036;-76
2022/12/29 10:23:22;;;;;;;1.65;0.80;;;9.50;99.90;;;;;;5071875;28;20090;-77
2022/12/29 10:25:48;;;;;;;1.40;0.80;;;9.50;99.90;;;;;;5052775;28;20028;-76
2022/12/29 10:28:38;;;;;;;1.02;0.80;;;9.60;99.90;;;;;;5055331;28;20107;-76
2022/12/29 10:31:10;;;;;;;2.00;1.13;;;9.70;99.90;;;;;;5074727;28;20025;-77
2022/12/29 10:33:41;;;;;;;1.75;1.00;;;9.70;99.90;;;;;;5068019;28;20035;-76
2022/12/29 10:36:25;;;;;;;1.00;0.90;;;9.80;99.90;;;;;;5074889;28;20146;-77
2022/12/29 10:39:10;;;;;;;1.70;1.07;;;9.90;99.90;;;;;;5069488;28;20662;-77
2022/12/29 10:42:05;;;;;;;2.05;0.93;;;9.90;99.90;;;;;;5054463;28;20327;-76
2022/12/29 10:44:34;;;;;;;3.55;1.10;;;9.90;99.90;;;;;;5051304;28;20040;-78
2022/12/29 10:47:06;;;;;;;1.63;0.80;;;10.00;99.90;;;;;;5054489;28;20031;-77
2022/12/29 10:49:37;;;;;;;2.47;0.90;;;10.00;99.90;;;;;;5052576;28;20020;-77
2022/12/29 10:52:04;;;;;;;2.00;1.05;;;10.00;99.90;;;;;;5048149;28;20044;-76
2022/12/29 10:54:48;;;;;;;1.58;0.88;;;10.10;99.90;;;;;;5068571;28;20025;-79
2022/12/29 10:57:26;;;;;;;4.43;1.20;;;10.10;99.90;;;;;;5076577;28;20496;-78
2022/12/29 10:59:51;;;;;;;1.20;0.85;;;10.10;99.90;;;;;;5058953;28;20052;-79
2022/12/29 11:02:23;;;;;;;0.85;0.82;;;10.10;99.90;;;;;;5082587;28;20039;-78
2022/12/29 11:05:07;;;;;;;3.97;1.00;;;10.10;99.90;;;;;;5059916;28;20366;-78
2022/12/29 11:07:33;;;;;;;4.65;1.00;;;10.20;99.90;;;;;;5078807;28;20107;-78
2022/12/29 11:10:42;;;;;;;2.15;1.02;;;10.20;99.90;;;;;;5068494;28;20036;-76
2022/12/29 11:13:37;;;;;;;1.45;1.13;;;10.20;99.90;;;;;;5069060;28;20032;-78
2022/12/29 11:16:03;;;;;;;1.00;0.63;;;10.20;99.90;;;;;;5062908;28;20045;-78
2022/12/29 11:18:39;;;;;;;2.25;1.20;;;10.20;99.90;;;;;;5069209;28;20038;-77
2022/12/29 11:21:40;;;;;;;2.35;0.90;;;10.30;99.90;;;;;;5052412;28;20040;-77
2022/12/29 11:24:21;;;;;;;2.95;0.90;;;10.30;99.90;;;;;;5053972;28;20033;-79
2022/12/29 11:26:50;;;;;;;1.33;0.90;;;10.40;99.90;;;;;;5072735;28;20032;-76
2022/12/29 11:29:16;;;;;;;1.15;0.80;;;10.40;99.90;;;;;;5071380;28;20120;-78
2022/12/29 11:31:47;;;;;;;1.35;0.70;;;10.30;99.90;;;;;;5075075;28;20723;-78
2022/12/29 11:34:23;;;;;;;1.83;0.98;;;10.30;99.90;;;;;;5053963;28;20048;-78
2022/12/29 11:36:53;;;;;;;2.97;0.85;;;10.40;99.90;;;;;;5073773;28;20033;-76
2022/12/29 11:39:33;;;;;;;4.90;1.10;;;10.40;99.90;;;;;;5016391;28;20113;-79
2022/12/29 11:42:02;;;;;;;1.20;0.85;;;10.30;99.90;;;;;;5069490;28;20036;-78
2022/12/29 11:44:36;;;;;;;2.80;0.90;;;10.30;99.90;;;;;;5052233;28;20059;-78
2022/12/29 11:47:02;;;;;;;1.92;1.00;;;10.30;99.90;;;;;;5039625;28;20185;-79
2022/12/29 11:49:28;;;;;;;2.00;1.20;;;10.30;99.90;;;;;;5056185;28;20452;-79
2022/12/29 11:51:56;;;;;;;3.42;0.98;;;10.30;99.90;;;;;;5069873;28;20056;-79
2022/12/29 11:54:33;;;;;;;1.25;0.73;;;10.30;99.90;;;;;;5071079;28;20039;-78
2022/12/29 11:57:12;;;;;;;1.08;0.90;;;10.30;99.90;;;;;;5032693;28;20047;-77
2022/12/29 11:59:42;;;;;;;1.10;0.88;;;10.30;99.90;;;;;;5065894;28;20043;-77
2022/12/29 12:02:26;;;;;;;1.92;1.33;;;10.30;99.90;;;;;;5060419;28;20025;-76
2022/12/29 12:05:01;;;;;;;0.80;0.75;;;10.30;99.90;;;;;;5030031;28;20071;-77
2022/12/29 12:07:53;;;;;;;2.05;1.05;;;10.30;99.90;;;;;;5059780;28;20055;-78
2022/12/29 12:10:58;;;;;;;1.13;0.85;;;10.40;99.90;;;;;;5057485;28;20138;-78
2022/12/29 12:13:39;;;;;;;1.63;1.00;;;10.40;99.90;;;;;;4981821;28;20497;-78
2022/12/29 12:16:25;;;;;;;2.45;0.80;;;10.30;99.90;;;;;;5046368;28;20035;-78
2022/12/29 12:19:22;;;;;;;2.58;0.90;;;10.30;99.90;;;;;;5045008;28;20067;-78
2022/12/29 12:21:55;;;;;;;1.30;0.98;;;10.30;99.90;;;;;;5037408;28;20040;-77
2022/12/29 12:24:34;;;;;;;1.98;1.00;;;10.30;99.90;;;;;;5048464;28;20060;-77
2022/12/29 12:27:14;;;;;;;6.22;3.25;;;10.30;99.90;;;;;;5071440;28;20547;-79
2022/12/29 12:29:49;;;;;;;1.08;0.95;;;10.30;99.90;;;;;;5033041;28;20093;-79
2022/12/29 12:32:27;;;;;;;1.67;0.90;;;10.30;99.90;;;;;;5043508;28;20021;-78
2022/12/29 12:34:53;;;;;;;1.85;1.13;;;10.30;99.90;;;;;;5059441;28;20021;-78
2022/12/29 12:37:56;;;;;;;1.92;1.55;;;10.40;99.90;;;;;;5064526;28;20047;-76
2022/12/29 12:40:41;;;;;;;1.52;1.05;;;10.30;99.90;;;;;;5044527;28;20149;-77
2022/12/29 12:43:44;;;;;;;1.13;0.87;;;10.30;99.90;;;;;;5059583;28;20396;-77
2022/12/29 12:46:28;;;;;;;2.45;1.23;;;10.30;99.90;;;;;;5055336;28;20052;-77
2022/12/29 12:49:19;;;;;;;2.58;1.08;;;10.30;99.90;;;;;;5061533;28;20030;-76
2022/12/29 12:52:25;;;;;;;1.30;0.90;;;10.30;99.90;;;;;;5040876;28;20037;-76
2022/12/29 12:55:15;;;;;;;1.98;1.02;;;10.30;99.90;;;;;;5028871;28;20052;-78
2022/12/29 12:57:56;;;;;;;3.88;1.35;;;10.40;99.90;;;;;;5046632;28;20040;-79
2022/12/29 13:00:23;;;;;;;3.67;1.08;;;10.40;99.90;;;;;;5063690;28;20028;-79
2022/12/29 13:03:17;;;;;;;1.10;0.95;;;10.40;99.90;;;;;;5064090;28;20078;-78
2022/12/29 13:06:13;;;;;;;1.75;1.00;;;10.40;99.90;;;;;;5061632;28;20111;-79
2022/12/29 13:09:01;;;;;;;5.97;1.02;;;10.30;99.90;;;;;;5066566;28;20037;-79
2022/12/29 13:11:49;;;;;;;3.38;1.20;;;10.40;99.90;;;;;;5039327;28;20028;-79
2022/12/29 13:14:32;;;;;;;2.45;1.00;;;10.30;99.90;;;;;;5053984;28;20086;-79
2022/12/29 13:17:22;;;;;;;1.55;1.20;;;10.30;99.90;;;;;;5033720;28;20024;-78
2022/12/29 13:20:05;;;;;;;1.60;1.13;;;10.20;99.90;;;;;;5035984;28;20032;-79
2022/12/29 13:22:41;;;;;;;2.08;1.00;;;10.20;99.90;;;;;;5062067;28;20036;-79
2022/12/29 13:25:27;;;;;;;1.65;1.10;;;10.30;99.90;;;;;;5069114;28;20392;-78
2022/12/29 13:28:34;;;;;;;2.55;1.05;;;10.30;99.90;;;;;;5072497;28;20089;-78
2022/12/29 13:31:20;;;;;;;1.08;0.80;;;10.30;99.90;;;;;;5054109;28;20086;-78
2022/12/29 13:34:22;;;;;;;1.52;1.00;;;10.40;99.90;;;;;;5055587;28;20025;-78
2022/12/29 13:37:04;;;;;;;2.47;1.23;;;10.30;99.90;;;;;;5072995;28;20407;-78
2022/12/29 13:39:38;;;;;;;1.58;0.80;;;10.30;99.90;;;;;;5073322;28;20032;-78
2022/12/29 13:42:06;;;;;;;2.25;0.70;;;10.30;99.90;;;;;;5074487;28;20024;-79
2022/12/29 13:44:57;;;;;;;2.10;1.00;;;10.30;99.90;;;;;;5052235;28;20048;-78
2022/12/29 13:47:42;;;;;;;1.02;0.73;;;10.30;99.90;;;;;;5080332;28;20032;-78
2022/12/29 13:50:20;;;;;;;1.45;0.80;;;10.30;99.90;;;;;;5070255;28;20121;-79
2022/12/29 13:53:19;;;;;;;1.15;0.73;;;10.20;99.90;;;;;;5032872;28;20513;-78
2022/12/29 13:55:57;;;;;;;3.20;1.10;;;10.20;99.90;;;;;;5074349;28;20025;-78
2022/12/29 13:58:54;;;;;;;1.52;1.00;;;10.20;99.90;;;;;;5064349;28;20029;-78
2022/12/29 14:01:48;;;;;;;1.00;0.90;;;10.20;99.90;;;;;;5071275;28;20461;-78